Terminal Aerodrome Forecast
Issued by NWS Corpus Christi, TX

Home | Current Version | Previous Version | Text Only | Print | Product List | Glossary On
Versions: 1 2 3 4 5 6 7 8 9 10 11 12 13 14
001
FTUS44 KCRP 211121
TAFCRP
TAF
KCRP 211121Z 2112/2212 VRB04KT P6SM FEW015
     FM211500 12012G20KT P6SM VCTS FEW035CB SCT050
      TEMPO 2115/2119 3SM -TSRA BKN035CB
     FM220300 13008KT P6SM FEW025=

USA.gov is the U.S. government's official web portal to all federal, state and local government web resources and services.